createdAt,value
2022-10-11T00:00:44.869Z,31
2022-10-11T00:01:46.903Z,31
2022-10-11T00:02:48.845Z,31
2022-10-11T00:03:50.410Z,31
2022-10-11T00:04:52.061Z,31
2022-10-11T00:05:53.738Z,31
2022-10-11T00:06:55.383Z,30.9
2022-10-11T00:07:57.029Z,30.9
2022-10-11T00:08:58.639Z,30.9
2022-10-11T00:10:00.180Z,31
2022-10-11T00:11:01.865Z,30.9
2022-10-11T00:12:03.611Z,30.9
2022-10-11T00:13:05.257Z,30.9
2022-10-11T00:14:07.002Z,30.9
2022-10-11T00:15:08.675Z,30.9
2022-10-11T00:16:10.443Z,30.9
2022-10-11T00:17:12.143Z,30.9
2022-10-11T00:18:13.665Z,30.9
2022-10-11T00:19:15.306Z,30.9
2022-10-11T00:20:16.842Z,30.9
2022-10-11T00:21:18.380Z,30.9
2022-10-11T00:22:20.066Z,30.9
2022-10-11T00:23:21.568Z,30.9
2022-10-11T00:24:23.163Z,31
2022-10-11T00:25:24.689Z,31
2022-10-11T00:26:26.350Z,31
2022-10-11T00:27:28.131Z,30.9
2022-10-11T00:28:29.891Z,30.9
2022-10-11T00:29:31.783Z,30.9
2022-10-11T00:30:33.457Z,30.9
2022-10-11T00:31:36.209Z,30.9
2022-10-11T00:32:37.908Z,30.9
2022-10-11T00:33:39.438Z,30.9
2022-10-11T00:34:41.136Z,30.9
2022-10-11T00:35:42.717Z,31
2022-10-11T00:36:44.306Z,30.9
2022-10-11T00:37:45.944Z,30.9
2022-10-11T00:38:47.479Z,30.9
2022-10-11T00:39:49.263Z,30.9
2022-10-11T00:40:50.792Z,30.9
2022-10-11T00:41:52.450Z,30.9
2022-10-11T00:42:54.056Z,30.9
2022-10-11T00:43:55.697Z,30.9
2022-10-11T00:44:57.229Z,30.9
2022-10-11T00:45:58.853Z,30.9
2022-10-11T00:47:00.782Z,30.9
2022-10-11T00:48:02.321Z,30.8
2022-10-11T00:49:04.169Z,30.9
2022-10-11T00:50:05.814Z,30.9
2022-10-11T00:51:08.311Z,30.9
2022-10-11T00:52:10.790Z,30.9
2022-10-11T00:53:12.363Z,30.8
2022-10-11T00:54:13.966Z,30.8
2022-10-11T00:55:15.681Z,30.8
2022-10-11T00:56:17.214Z,30.8
2022-10-11T00:57:18.756Z,30.8
2022-10-11T00:58:20.347Z,30.8
2022-10-11T00:59:21.954Z,30.8
2022-10-11T01:00:23.613Z,30.8
2022-10-11T01:01:25.487Z,30.8
2022-10-11T01:02:27.723Z,30.8
2022-10-11T01:03:29.272Z,30.9
2022-10-11T01:04:30.899Z,30.8
2022-10-11T01:05:32.514Z,30.8
2022-10-11T01:06:34.351Z,30.8
2022-10-11T01:07:36.039Z,30.8
2022-10-11T01:08:37.571Z,30.8
2022-10-11T01:09:39.101Z,30.8
2022-10-11T01:10:40.651Z,30.8
2022-10-11T01:11:42.224Z,30.8
2022-10-11T01:12:43.851Z,30.8
2022-10-11T01:13:45.464Z,30.8
2022-10-11T01:14:47.142Z,30.8
2022-10-11T01:15:48.789Z,30.8
2022-10-11T01:16:50.570Z,30.8
2022-10-11T01:17:52.384Z,30.8
2022-10-11T01:18:54.134Z,30.8
2022-10-11T01:19:55.755Z,30.8
2022-10-11T01:20:57.387Z,30.8
2022-10-11T01:21:59.044Z,30.9
2022-10-11T01:23:00.719Z,30.8
2022-10-11T01:24:08.829Z,30.8
2022-10-11T01:25:10.608Z,30.8
2022-10-11T01:26:12.247Z,30.8
2022-10-11T01:27:13.755Z,30.8
2022-10-11T01:28:15.447Z,30.7
2022-10-11T01:29:17.490Z,30.8
2022-10-11T01:30:19.128Z,30.8
2022-10-11T01:31:20.744Z,30.8
2022-10-11T01:32:22.516Z,30.8
2022-10-11T01:33:24.360Z,30.8
2022-10-11T01:34:26.188Z,30.8
2022-10-11T01:35:27.865Z,30.8
2022-10-11T01:36:29.583Z,30.8
2022-10-11T01:37:31.224Z,30.8
2022-10-11T01:38:33.218Z,30.9
2022-10-11T01:39:35.031Z,30.9
2022-10-11T01:40:36.555Z,30.9
2022-10-11T01:41:38.116Z,30.9
2022-10-11T01:42:39.761Z,30.8
2022-10-11T01:43:41.402Z,30.9
2022-10-11T01:44:43.051Z,30.9
2022-10-11T01:45:44.700Z,30.9
2022-10-11T01:46:46.446Z,30.9
2022-10-11T01:47:48.112Z,30.9
2022-10-11T01:48:49.878Z,30.8
2022-10-11T01:49:51.582Z,30.8
2022-10-11T01:50:53.164Z,30.8
2022-10-11T01:51:54.765Z,30.9
2022-10-11T01:52:56.658Z,30.8
2022-10-11T01:53:58.365Z,30.8
2022-10-11T01:55:11.172Z,30.8
2022-10-11T01:56:12.822Z,30.8
2022-10-11T01:57:14.574Z,30.8
2022-10-11T01:58:16.188Z,30.8
2022-10-11T01:59:17.959Z,30.8
2022-10-11T02:00:19.581Z,30.8
2022-10-11T02:01:21.389Z,30.8
2022-10-11T02:02:23.341Z,30.9
2022-10-11T02:03:24.974Z,30.9
2022-10-11T02:04:26.902Z,30.8
2022-10-11T02:05:28.552Z,30.8
2022-10-11T02:06:30.167Z,30.9
2022-10-11T02:07:31.712Z,30.8
2022-10-11T02:08:33.356Z,30.9
2022-10-11T02:09:35.125Z,30.9
2022-10-11T02:10:36.712Z,30.9
2022-10-11T02:11:38.323Z,30.9
2022-10-11T02:12:40.163Z,30.9
2022-10-11T02:13:41.695Z,30.9
2022-10-11T02:14:43.228Z,30.9
2022-10-11T02:15:44.774Z,30.8
2022-10-11T02:16:46.419Z,30.9
2022-10-11T02:17:48.190Z,30.9
2022-10-11T02:18:49.978Z,30.9
2022-10-11T02:19:51.731Z,30.9
2022-10-11T02:20:53.272Z,30.9
2022-10-11T02:21:54.851Z,30.9
2022-10-11T02:22:56.738Z,30.9
2022-10-11T02:23:58.511Z,30.8
2022-10-11T02:25:00.089Z,30.9
2022-10-11T02:26:02.740Z,30.8
2022-10-11T02:27:05.558Z,30.9
2022-10-11T02:28:07.382Z,30.9
2022-10-11T02:29:09.191Z,30.9
2022-10-11T02:30:10.797Z,30.9
2022-10-11T02:31:12.345Z,30.9
2022-10-11T02:32:13.983Z,30.9
2022-10-11T02:33:15.565Z,30.9
2022-10-11T02:34:17.300Z,30.9
2022-10-11T02:35:19.122Z,30.9
2022-10-11T02:36:20.653Z,30.9
2022-10-11T02:37:22.313Z,30.9
2022-10-11T02:38:23.960Z,30.9
2022-10-11T02:39:25.815Z,30.9
2022-10-11T02:40:27.453Z,30.9
2022-10-11T02:41:32.082Z,30.9
2022-10-11T02:42:33.612Z,30.9
2022-10-11T02:43:35.360Z,30.9
2022-10-11T02:44:36.894Z,30.9
2022-10-11T02:45:38.752Z,30.9
2022-10-11T02:46:40.333Z,30.9
2022-10-11T02:47:41.977Z,30.9
2022-10-11T02:48:43.725Z,30.9
2022-10-11T02:49:45.458Z,30.9
2022-10-11T02:50:47.285Z,30.9
2022-10-11T02:51:48.808Z,30.9
2022-10-11T02:52:50.722Z,30.9
2022-10-11T02:53:52.303Z,30.9
2022-10-11T02:54:53.830Z,30.9
2022-10-11T02:55:55.360Z,30.9
2022-10-11T02:56:57.089Z,30.9
2022-10-11T02:57:58.699Z,30.9
2022-10-11T02:59:00.354Z,30.9
2022-10-11T03:00:02.193Z,30.9
2022-10-11T03:01:03.947Z,30.9
2022-10-11T03:02:05.708Z,30.9
2022-10-11T03:03:07.686Z,30.9
2022-10-11T03:04:09.250Z,30.9
2022-10-11T03:05:11.062Z,30.9
2022-10-11T03:06:12.883Z,30.9
2022-10-11T03:07:14.418Z,30.9
2022-10-11T03:08:15.972Z,30.9
2022-10-11T03:09:17.501Z,30.9
2022-10-11T03:10:19.075Z,30.9
2022-10-11T03:11:20.706Z,30.9
2022-10-11T03:12:22.244Z,30.9
2022-10-11T03:13:23.953Z,30.9
2022-10-11T03:14:25.485Z,30.9
2022-10-11T03:15:27.057Z,30.9
2022-10-11T03:16:28.724Z,30.9
2022-10-11T03:17:37.969Z,30.9
2022-10-11T03:18:39.617Z,30.9
2022-10-11T03:19:41.248Z,30.9
2022-10-11T03:20:43.110Z,30.9
2022-10-11T03:21:47.598Z,30.9
2022-10-11T03:22:49.133Z,30.9
2022-10-11T03:23:50.786Z,30.9
2022-10-11T03:24:52.432Z,30.9
2022-10-11T03:25:54.079Z,30.9
2022-10-11T03:26:55.623Z,30.9
2022-10-11T03:27:57.155Z,30.9
2022-10-11T03:28:59.033Z,30.9
2022-10-11T03:30:00.735Z,31
2022-10-11T03:31:02.341Z,31.1
2022-10-11T03:32:03.947Z,31.3
2022-10-11T03:33:05.592Z,31.5
2022-10-11T03:34:07.238Z,31.8
2022-10-11T03:35:08.886Z,32
2022-10-11T03:36:10.577Z,32.2
2022-10-11T03:37:12.380Z,32.3
2022-10-11T03:38:13.992Z,32.4
2022-10-11T03:39:15.889Z,32.5
2022-10-11T03:40:20.317Z,32.7
2022-10-11T03:41:21.930Z,32.7
2022-10-11T03:42:23.578Z,32.9
2022-10-11T03:43:25.264Z,33
2022-10-11T03:44:26.907Z,33.1
2022-10-11T03:45:28.441Z,33.2
2022-10-11T03:46:30.257Z,33.3
2022-10-11T03:47:31.905Z,33.4
2022-10-11T03:48:33.492Z,33.5
2022-10-11T03:49:43.556Z,33.6
2022-10-11T03:50:45.584Z,33.8
2022-10-11T03:51:47.317Z,33.9
2022-10-11T03:52:49.005Z,33.8
2022-10-11T03:53:50.685Z,34
2022-10-11T03:54:52.335Z,34.1
2022-10-11T03:55:53.940Z,34.2
2022-10-11T03:56:55.560Z,34.2
2022-10-11T03:57:57.186Z,34.2
2022-10-11T03:58:58.910Z,34.2
2022-10-11T04:00:00.438Z,34.3
2022-10-11T04:01:04.875Z,34.3
2022-10-11T04:02:06.633Z,34.3
2022-10-11T04:03:08.602Z,34.2
2022-10-11T04:04:10.313Z,34.1
2022-10-11T04:05:11.962Z,34.3
2022-10-11T04:06:13.606Z,34.4
2022-10-11T04:07:15.374Z,34.3
2022-10-11T04:08:17.207Z,34.5
2022-10-11T04:09:18.742Z,34.4
2022-10-11T04:10:23.009Z,34.3
2022-10-11T04:11:24.695Z,34.2
2022-10-11T04:12:26.226Z,34.4
2022-10-11T04:13:27.760Z,34.6
2022-10-11T04:14:29.425Z,34.6
2022-10-11T04:15:30.956Z,34.6
2022-10-11T04:16:32.729Z,34.5
2022-10-11T04:17:34.578Z,34.5
2022-10-11T04:18:36.195Z,34.5
2022-10-11T04:19:37.825Z,34.5
2022-10-11T04:20:39.374Z,34.5
2022-10-11T04:21:41.249Z,34.5
2022-10-11T04:22:42.925Z,34.5
2022-10-11T04:23:44.755Z,34.6
2022-10-11T04:24:46.286Z,34.6
2022-10-11T04:25:47.949Z,34.4
2022-10-11T04:26:49.514Z,34.5
2022-10-11T04:27:51.042Z,34.4
2022-10-11T04:28:53.106Z,34.3
2022-10-11T04:29:55.231Z,34.3
2022-10-11T04:30:56.898Z,34.3
2022-10-11T04:31:58.726Z,34.4
2022-10-11T04:33:00.258Z,34.5
2022-10-11T04:34:01.865Z,34.8
2022-10-11T04:35:05.015Z,34.6
2022-10-11T04:36:07.882Z,34.6
2022-10-11T04:37:10.779Z,34.3
2022-10-11T04:38:12.409Z,34.3
2022-10-11T04:39:14.340Z,34.4
2022-10-11T04:40:15.876Z,34.4
2022-10-11T04:41:17.625Z,34.3
2022-10-11T04:42:19.274Z,34.4
2022-10-11T04:43:20.999Z,34.5
2022-10-11T04:44:22.578Z,34.5
2022-10-11T04:45:24.109Z,34.5
2022-10-11T04:46:25.636Z,34.3
2022-10-11T04:47:27.294Z,34.3
2022-10-11T04:48:28.953Z,34.5
2022-10-11T04:49:30.549Z,34.6
2022-10-11T04:50:32.077Z,34.6
2022-10-11T04:51:33.878Z,34.7
2022-10-11T04:52:35.520Z,34.7
2022-10-11T04:53:37.197Z,34.6
2022-10-11T04:54:39.465Z,34.6
2022-10-11T04:55:41.005Z,34.6
2022-10-11T04:56:42.579Z,34.6
2022-10-11T04:57:44.366Z,34.7
2022-10-11T04:58:46.018Z,34.7
2022-10-11T04:59:50.566Z,34.7
2022-10-11T05:00:52.143Z,34.6
2022-10-11T05:01:53.967Z,34.7
2022-10-11T05:02:56.036Z,34.7
2022-10-11T05:03:57.715Z,34.7
2022-10-11T05:04:59.468Z,34.6
2022-10-11T05:06:06.248Z,34.6
2022-10-11T05:07:08.530Z,34.6
2022-10-11T05:08:10.109Z,34.5
2022-10-11T05:09:11.802Z,34.3
2022-10-11T05:10:13.734Z,34.3
2022-10-11T05:11:16.420Z,34.2
2022-10-11T05:12:17.982Z,34.1
2022-10-11T05:13:19.568Z,34
2022-10-11T05:14:21.234Z,34.1
2022-10-11T05:15:22.895Z,34.2
2022-10-11T05:16:24.659Z,34.1
2022-10-11T05:17:26.205Z,34.1
2022-10-11T05:18:27.812Z,34
2022-10-11T05:19:29.461Z,34
2022-10-11T05:20:31.033Z,34
2022-10-11T05:21:32.860Z,33.9
2022-10-11T05:22:34.539Z,33.8
2022-10-11T05:23:36.049Z,33.8
2022-10-11T05:24:37.706Z,33.8
2022-10-11T05:25:39.534Z,33.9
2022-10-11T05:26:41.180Z,34
2022-10-11T05:27:42.776Z,33.9
2022-10-11T05:28:44.550Z,34
2022-10-11T05:29:46.629Z,34
2022-10-11T05:30:48.159Z,33.8
2022-10-11T05:31:49.814Z,33.9
2022-10-11T05:32:51.384Z,34
2022-10-11T05:33:53.008Z,34
2022-10-11T05:34:54.649Z,33.9
2022-10-11T05:35:56.393Z,33.8
2022-10-11T05:36:57.937Z,33.8
2022-10-11T05:37:59.518Z,33.7
2022-10-11T05:39:01.126Z,33.7
2022-10-11T05:40:02.794Z,33.7
2022-10-11T05:41:04.645Z,33.7
2022-10-11T05:42:10.251Z,33.7
2022-10-11T05:43:11.885Z,33.7
2022-10-11T05:44:13.558Z,33.5
2022-10-11T05:45:15.138Z,33.5
2022-10-11T05:46:16.686Z,33.5
2022-10-11T05:47:18.488Z,33.6
2022-10-11T05:48:20.161Z,33.6
2022-10-11T05:49:21.782Z,33.6
2022-10-11T05:50:24.755Z,33.7
2022-10-11T05:51:26.284Z,33.6
2022-10-11T05:52:27.939Z,33.6
2022-10-11T05:53:29.491Z,33.4
2022-10-11T05:54:31.232Z,33.3
2022-10-11T05:55:32.912Z,33.3
2022-10-11T05:56:34.569Z,33.4
2022-10-11T05:57:36.229Z,33.3
2022-10-11T05:58:37.881Z,33.3
2022-10-11T05:59:39.559Z,33.3
2022-10-11T06:00:41.097Z,33.3
2022-10-11T06:01:43.093Z,33.4
2022-10-11T06:02:44.947Z,33.5
2022-10-11T06:03:46.654Z,33.4
2022-10-11T06:04:48.418Z,33.4
2022-10-11T06:06:03.451Z,33.3
2022-10-11T06:07:05.521Z,33.3
2022-10-11T06:08:07.262Z,33.3
2022-10-11T06:09:08.921Z,33.4
2022-10-11T06:10:10.534Z,33.2
2022-10-11T06:11:12.537Z,33.3
2022-10-11T06:12:14.306Z,33.3
2022-10-11T06:13:15.943Z,33.2
2022-10-11T06:14:17.644Z,33.2
2022-10-11T06:15:19.289Z,33.1
2022-10-11T06:16:20.935Z,33.1
2022-10-11T06:17:22.686Z,33
2022-10-11T06:18:24.298Z,33
2022-10-11T06:19:25.837Z,33
2022-10-11T06:20:27.661Z,33
2022-10-11T06:21:29.714Z,33.2
2022-10-11T06:22:34.188Z,33
2022-10-11T06:23:35.728Z,33.2
2022-10-11T06:24:37.343Z,33.2
2022-10-11T06:25:38.881Z,33.1
2022-10-11T06:26:40.589Z,33.1
2022-10-11T06:27:42.366Z,33.1
2022-10-11T06:28:44.197Z,33.2
2022-10-11T06:29:46.420Z,33.1
2022-10-11T06:30:47.965Z,33.2
2022-10-11T06:31:49.618Z,33.1
2022-10-11T06:32:51.245Z,33
2022-10-11T06:33:52.785Z,33
2022-10-11T06:34:54.448Z,32.9
2022-10-11T06:35:55.987Z,33
2022-10-11T06:36:57.635Z,32.9
2022-10-11T06:37:59.285Z,32.9
2022-10-11T06:39:00.863Z,33
2022-10-11T06:40:02.489Z,33
2022-10-11T06:41:04.014Z,33
2022-10-11T06:42:05.600Z,32.9
2022-10-11T06:43:07.351Z,32.9
2022-10-11T06:44:14.479Z,32.9
2022-10-11T06:45:16.376Z,32.9
2022-10-11T06:46:17.999Z,32.9
2022-10-11T06:47:19.615Z,32.9
2022-10-11T06:48:21.363Z,32.9
2022-10-11T06:49:23.933Z,32.8
2022-10-11T06:50:59.433Z,32.9
2022-10-11T06:52:02.448Z,32.7
2022-10-11T06:53:04.136Z,32.7
2022-10-11T06:54:05.664Z,32.8
2022-10-11T06:55:07.264Z,32.7
2022-10-11T06:56:09.866Z,32.8
2022-10-11T06:57:11.727Z,32.7
2022-10-11T06:58:13.701Z,32.7
2022-10-11T06:59:15.277Z,32.7
2022-10-11T07:00:16.897Z,32.8
2022-10-11T07:01:18.779Z,32.8
2022-10-11T07:02:20.845Z,33
2022-10-11T07:03:22.483Z,32.8
2022-10-11T07:04:24.119Z,32.9
2022-10-11T07:05:25.710Z,32.2
2022-10-11T07:06:27.326Z,32
2022-10-11T07:07:28.983Z,32.9
2022-10-11T07:08:30.907Z,33
2022-10-11T07:09:32.460Z,32.9
2022-10-11T07:10:34.167Z,32.9
2022-10-11T07:11:35.855Z,32.9
2022-10-11T07:12:37.532Z,32.9
2022-10-11T07:13:39.455Z,33
2022-10-11T07:14:41.146Z,33
2022-10-11T07:15:42.833Z,33.1
2022-10-11T07:16:44.526Z,33
2022-10-11T07:17:46.342Z,33
2022-10-11T07:18:47.950Z,33
2022-10-11T07:19:49.616Z,33
2022-10-11T07:20:51.280Z,33
2022-10-11T07:21:53.227Z,32.9
2022-10-11T07:22:54.754Z,32.9
2022-10-11T07:23:56.466Z,32.9
2022-10-11T07:24:58.381Z,32.9
2022-10-11T07:26:00.159Z,32.9
2022-10-11T07:27:01.969Z,32.9
2022-10-11T07:28:03.746Z,32.9
2022-10-11T07:29:05.720Z,33
2022-10-11T07:30:07.826Z,32.9
2022-10-11T07:31:09.504Z,33.1
2022-10-11T07:32:11.322Z,33
2022-10-11T07:33:13.068Z,32.9
2022-10-11T07:34:15.027Z,32.8
2022-10-11T07:35:16.769Z,32.8
2022-10-11T07:36:18.377Z,32.8
2022-10-11T07:37:20.098Z,32.8
2022-10-11T07:38:21.776Z,32.7
2022-10-11T07:39:23.934Z,32.7
2022-10-11T07:40:25.613Z,32.7
2022-10-11T07:41:27.268Z,32.7
2022-10-11T07:42:29.041Z,32.7
2022-10-11T07:43:31.295Z,32.7
2022-10-11T07:44:33.068Z,32.7
2022-10-11T07:45:34.657Z,32.8
2022-10-11T07:46:36.296Z,32.8
2022-10-11T07:47:38.260Z,32.7
2022-10-11T07:48:40.004Z,32.7
2022-10-11T07:49:41.674Z,32.7
2022-10-11T07:50:43.328Z,32.8
2022-10-11T07:51:44.857Z,32.8
2022-10-11T07:52:46.476Z,32.7
2022-10-11T07:53:48.122Z,32.6
2022-10-11T07:54:49.765Z,32.7
2022-10-11T07:55:51.310Z,32.7
2022-10-11T07:56:53.193Z,32.6
2022-10-11T07:57:54.955Z,32.8
2022-10-11T07:58:56.721Z,32.7
2022-10-11T07:59:58.717Z,32.7
2022-10-11T08:01:00.511Z,32.7
2022-10-11T08:02:02.832Z,32.7
2022-10-11T08:03:05.085Z,32.6
2022-10-11T08:04:06.728Z,32.6
2022-10-11T08:05:08.372Z,32.6
2022-10-11T08:06:10.803Z,32.6
2022-10-11T08:07:12.891Z,32.6
2022-10-11T08:08:14.535Z,32.6
2022-10-11T08:09:16.182Z,32.6
2022-10-11T08:10:17.725Z,32.6
2022-10-11T08:11:19.339Z,32.6
2022-10-11T08:12:21.122Z,32.6
2022-10-11T08:13:23.233Z,32.5
2022-10-11T08:14:24.961Z,32.4
2022-10-11T08:15:26.844Z,32.4
2022-10-11T08:16:28.620Z,32.4
2022-10-11T08:17:30.726Z,32.6
2022-10-11T08:18:32.525Z,32.5
2022-10-11T08:19:34.529Z,32.5
2022-10-11T08:20:36.092Z,32.4
2022-10-11T08:21:37.756Z,32.4
2022-10-11T08:22:39.522Z,32.4
2022-10-11T08:23:41.082Z,32.3
2022-10-11T08:24:42.639Z,32.3
2022-10-11T08:25:44.350Z,32.3
2022-10-11T08:26:45.991Z,32.3
2022-10-11T08:27:47.635Z,32.3
2022-10-11T08:28:49.476Z,32.3
2022-10-11T08:29:51.368Z,32.3
2022-10-11T08:30:53.395Z,32.3
2022-10-11T08:31:55.168Z,32.3
2022-10-11T08:32:56.797Z,32.3
2022-10-11T08:33:58.547Z,32.3
2022-10-11T08:35:00.178Z,32.3
2022-10-11T08:36:02.466Z,32.2
2022-10-11T08:37:05.910Z,32.3
2022-10-11T08:38:07.673Z,32.2
2022-10-11T08:39:09.332Z,32.1
2022-10-11T08:40:13.123Z,32.2
2022-10-11T08:41:14.760Z,32.2
2022-10-11T08:42:16.410Z,32.2
2022-10-11T08:43:18.132Z,32.1
2022-10-11T08:44:19.902Z,32.1
2022-10-11T08:45:21.570Z,32.2
2022-10-11T08:46:23.444Z,32.2
2022-10-11T08:47:25.351Z,32.2
2022-10-11T08:48:26.960Z,32.3
2022-10-11T08:49:28.646Z,32.4
2022-10-11T08:50:30.238Z,32.5
2022-10-11T08:51:31.932Z,32.4
2022-10-11T08:52:33.518Z,32.3
2022-10-11T08:53:35.141Z,32.3
2022-10-11T08:54:36.781Z,32.3
2022-10-11T08:55:38.620Z,32.4
2022-10-11T08:56:40.505Z,32.7
2022-10-11T08:57:42.213Z,32.6
2022-10-11T08:58:43.921Z,32.7
2022-10-11T08:59:45.706Z,32.6
2022-10-11T09:00:47.482Z,32.6
2022-10-11T09:01:49.437Z,32.5
2022-10-11T09:03:09.162Z,32.6
2022-10-11T09:04:11.742Z,32.6
2022-10-11T09:05:13.273Z,32.7
2022-10-11T09:06:14.862Z,32.7
2022-10-11T09:07:16.395Z,32.9
2022-10-11T09:08:18.086Z,32.9
2022-10-11T09:09:19.626Z,32.8
2022-10-11T09:10:21.191Z,32.8
2022-10-11T09:11:22.816Z,32.8
2022-10-11T09:12:32.932Z,32.9
2022-10-11T09:13:42.624Z,32.9
2022-10-11T09:14:44.269Z,32.8
2022-10-11T09:15:45.861Z,32.9
2022-10-11T09:16:47.584Z,32.8
2022-10-11T09:17:49.409Z,32.8
2022-10-11T09:18:51.058Z,32.9
2022-10-11T09:19:52.609Z,32.8
2022-10-11T09:20:54.223Z,32.9
2022-10-11T09:21:55.906Z,32.8
2022-10-11T09:22:57.637Z,32.8
2022-10-11T09:23:59.300Z,32.7
2022-10-11T09:25:00.843Z,32.6
2022-10-11T09:26:03.410Z,32.5
2022-10-11T09:27:06.240Z,32.4
2022-10-11T09:28:08.152Z,32.3
2022-10-11T09:29:12.981Z,32.3
2022-10-11T09:30:14.685Z,32.2
2022-10-11T09:31:16.328Z,32.3
2022-10-11T09:32:18.010Z,32.2
2022-10-11T09:33:19.927Z,32.2
2022-10-11T09:34:21.673Z,32.1
2022-10-11T09:35:23.207Z,32.1
2022-10-11T09:36:24.833Z,32
2022-10-11T09:37:26.376Z,32
2022-10-11T09:38:27.978Z,32
2022-10-11T09:39:29.599Z,32
2022-10-11T09:40:31.340Z,32
2022-10-11T09:41:33.192Z,32
2022-10-11T09:42:34.727Z,32
2022-10-11T09:43:36.344Z,31.9
2022-10-11T09:44:38.041Z,31.8
2022-10-11T09:45:39.568Z,31.9
2022-10-11T09:46:41.315Z,32
2022-10-11T09:47:42.976Z,32
2022-10-11T09:48:44.752Z,32
2022-10-11T09:49:46.705Z,32
2022-10-11T09:50:48.357Z,32.1
2022-10-11T09:51:50.159Z,32
2022-10-11T09:52:52.011Z,32
2022-10-11T09:53:53.608Z,32
2022-10-11T09:54:55.295Z,32
2022-10-11T09:55:56.826Z,32
2022-10-11T09:56:58.531Z,32.4
2022-10-11T09:58:00.129Z,31.8
2022-10-11T09:59:01.889Z,31.8
2022-10-11T10:00:03.622Z,31.7
2022-10-11T10:01:08.624Z,31.8
2022-10-11T10:02:10.428Z,31.8
2022-10-11T10:03:12.277Z,31.8
2022-10-11T10:04:14.099Z,31.8
2022-10-11T10:05:15.850Z,31.6
2022-10-11T10:06:17.490Z,31.7
2022-10-11T10:07:19.236Z,32
2022-10-11T10:08:21.089Z,31.9
2022-10-11T10:09:22.667Z,32.2
2022-10-11T10:10:24.202Z,32.1
2022-10-11T10:11:25.734Z,31.9
2022-10-11T10:12:27.365Z,31.9
2022-10-11T10:13:28.892Z,31.9
2022-10-11T10:14:30.428Z,31.8
2022-10-11T10:15:32.053Z,31.7
2022-10-11T10:16:33.603Z,31.7
2022-10-11T10:17:35.487Z,31.8
2022-10-11T10:18:37.163Z,31.9
2022-10-11T10:19:45.337Z,31.8
2022-10-11T10:20:47.175Z,31.7
2022-10-11T10:21:48.880Z,31.7
2022-10-11T10:22:50.821Z,31.7
2022-10-11T10:23:52.427Z,31.6
2022-10-11T10:24:54.066Z,31.6
2022-10-11T10:25:55.713Z,31.7
2022-10-11T10:26:57.310Z,31.6
2022-10-11T10:27:58.877Z,31.7
2022-10-11T10:29:00.844Z,31.7
2022-10-11T10:30:03.034Z,31.7
2022-10-11T10:31:04.878Z,31.7
2022-10-11T10:32:15.398Z,31.8
2022-10-11T10:33:17.129Z,31.7
2022-10-11T10:34:18.798Z,31.5
2022-10-11T10:35:20.593Z,31.6
2022-10-11T10:36:22.305Z,31.7
2022-10-11T10:37:23.909Z,31.6
2022-10-11T10:38:27.099Z,31.5
2022-10-11T10:39:28.804Z,31.6
2022-10-11T10:40:30.421Z,31.6
2022-10-11T10:41:32.176Z,31.8
2022-10-11T10:42:33.818Z,31.8
2022-10-11T10:43:35.560Z,31.6
2022-10-11T10:44:37.166Z,31.7
2022-10-11T10:45:38.710Z,31.8
2022-10-11T10:46:40.353Z,31.8
2022-10-11T10:47:41.975Z,31.6
2022-10-11T10:49:48.699Z,31.6
2022-10-11T10:50:56.808Z,31.7
2022-10-11T10:51:58.351Z,31.6
2022-10-11T10:52:59.886Z,31.6
2022-10-11T10:54:01.534Z,31.6
2022-10-11T10:55:03.181Z,31.8
2022-10-11T10:56:05.519Z,31.8
2022-10-11T10:57:08.047Z,31.9
2022-10-11T10:58:09.753Z,31.8
2022-10-11T10:59:17.747Z,31.7
2022-10-11T11:00:19.276Z,31.8
2022-10-11T11:01:20.964Z,31.7
2022-10-11T11:02:41.429Z,31.9
2022-10-11T11:03:43.717Z,31.9
2022-10-11T11:04:45.508Z,31.8
2022-10-11T11:05:47.321Z,31.8
2022-10-11T11:06:49.128Z,31.9
2022-10-11T11:07:50.657Z,31.9
2022-10-11T11:08:52.223Z,31.9
2022-10-11T11:09:53.904Z,31.9
2022-10-11T11:10:55.507Z,32
2022-10-11T11:11:57.253Z,32
2022-10-11T11:12:59.005Z,32.1
2022-10-11T11:14:00.648Z,32
2022-10-11T11:15:02.282Z,32.2
2022-10-11T11:16:04.540Z,32.1
2022-10-11T11:17:07.333Z,32
2022-10-11T11:18:08.971Z,32.1
2022-10-11T11:19:10.613Z,32.1
2022-10-11T11:20:12.340Z,32.1
2022-10-11T11:21:14.110Z,32.2
2022-10-11T11:22:16.093Z,32.1
2022-10-11T11:23:17.740Z,32.2
2022-10-11T11:24:19.343Z,32.3
2022-10-11T11:25:21.104Z,32.3
2022-10-11T11:26:22.952Z,32.5
2022-10-11T11:27:24.487Z,32.5
2022-10-11T11:28:26.136Z,32.6
2022-10-11T11:29:28.076Z,32.6
2022-10-11T11:30:29.710Z,32.8
2022-10-11T11:31:31.250Z,32.7
2022-10-11T11:32:32.929Z,32.7
2022-10-11T11:33:34.572Z,32.7
2022-10-11T11:34:36.220Z,32.7
2022-10-11T11:35:37.990Z,32.7
2022-10-11T11:36:39.714Z,32.8
2022-10-11T11:37:41.483Z,32.8
2022-10-11T11:38:43.211Z,32.9
2022-10-11T11:39:44.933Z,32.8
2022-10-11T11:40:46.487Z,33
2022-10-11T11:41:48.147Z,33
2022-10-11T11:42:49.896Z,32.9
2022-10-11T11:43:51.577Z,33
2022-10-11T11:44:53.118Z,33
2022-10-11T11:45:54.724Z,33
2022-10-11T11:46:56.368Z,33.1
2022-10-11T11:47:58.014Z,33
2022-10-11T11:48:59.603Z,33
2022-10-11T11:50:01.144Z,33.1
2022-10-11T11:51:03.491Z,33.1
2022-10-11T11:52:06.354Z,33.1
2022-10-11T11:53:08.093Z,33.1
2022-10-11T11:54:09.629Z,33.1
2022-10-11T11:55:11.296Z,33.2
2022-10-11T11:56:12.910Z,33.2
2022-10-11T11:57:14.567Z,33.2
2022-10-11T11:58:16.314Z,33.1
2022-10-11T11:59:18.066Z,33.1
2022-10-11T12:00:19.783Z,33.1
2022-10-11T12:01:21.451Z,33.2
2022-10-11T12:02:23.205Z,33.3
2022-10-11T12:03:24.952Z,33.4
2022-10-11T12:04:26.793Z,33.4
2022-10-11T12:05:28.643Z,33.5
2022-10-11T12:06:30.622Z,33.5
2022-10-11T12:07:32.303Z,33.5
2022-10-11T12:08:34.094Z,33.6
2022-10-11T12:09:35.635Z,33.6
2022-10-11T12:10:37.281Z,33.6
2022-10-11T12:11:38.974Z,33.6
2022-10-11T12:12:40.512Z,33.6
2022-10-11T12:13:42.186Z,33.7
2022-10-11T12:14:43.839Z,33.7
2022-10-11T12:15:45.613Z,33.7
2022-10-11T12:16:47.290Z,33.9
2022-10-11T12:17:48.837Z,33.8
2022-10-11T12:18:50.478Z,33.7
2022-10-11T12:19:52.018Z,33.7
2022-10-11T12:20:53.629Z,33.8
2022-10-11T12:21:55.296Z,33.8
2022-10-11T12:22:57.022Z,33.8
2022-10-11T12:23:58.769Z,33.8
2022-10-11T12:25:00.420Z,33.9
2022-10-11T12:26:02.022Z,33.9
2022-10-11T12:27:03.718Z,33.9
2022-10-11T12:28:05.257Z,33.8
2022-10-11T12:29:06.788Z,33.9
2022-10-11T12:30:08.439Z,33.8
2022-10-11T12:31:10.185Z,33.7
2022-10-11T12:32:11.778Z,33.7
2022-10-11T12:33:13.313Z,33.6
2022-10-11T12:34:14.984Z,33.5
2022-10-11T12:35:16.758Z,33.6
2022-10-11T12:36:18.392Z,33.7
2022-10-11T12:37:20.115Z,33.8
2022-10-11T12:38:21.809Z,33.7
2022-10-11T12:39:23.767Z,33.8
2022-10-11T12:40:25.606Z,33.9
2022-10-11T12:41:27.209Z,34
2022-10-11T12:42:28.773Z,33.9
2022-10-11T12:43:30.447Z,33.9
2022-10-11T12:44:32.191Z,34.1
2022-10-11T12:45:34.036Z,33.6
2022-10-11T12:46:35.581Z,33.8
2022-10-11T12:47:37.226Z,33.7
2022-10-11T12:48:41.361Z,33.7
2022-10-11T12:49:43.486Z,33.7
2022-10-11T12:50:45.097Z,33.6
2022-10-11T12:51:46.878Z,33.6
2022-10-11T12:52:48.652Z,33.6
2022-10-11T12:54:26.520Z,33.7
2022-10-11T12:55:38.613Z,33.7
2022-10-11T12:56:42.887Z,33.7
2022-10-11T12:57:46.777Z,33.5
2022-10-11T12:58:48.777Z,33.8
2022-10-11T12:59:50.659Z,33.7
2022-10-11T13:00:52.525Z,33.9
2022-10-11T13:01:54.473Z,33.8
2022-10-11T13:02:56.278Z,33.8
2022-10-11T13:03:58.017Z,33.8
2022-10-11T13:04:59.607Z,33.8
2022-10-11T13:06:02.332Z,33.8
2022-10-11T13:07:07.086Z,33.8
2022-10-11T13:08:08.763Z,33.8
2022-10-11T13:09:10.493Z,33.9
2022-10-11T13:10:12.039Z,33.9
2022-10-11T13:11:13.835Z,34
2022-10-11T13:12:15.371Z,34
2022-10-11T13:13:17.234Z,33.9
2022-10-11T13:14:18.875Z,33.9
2022-10-11T13:15:20.830Z,33.9
2022-10-11T13:16:22.534Z,34
2022-10-11T13:17:24.167Z,34
2022-10-11T13:18:26.071Z,34
2022-10-11T13:19:27.895Z,34
2022-10-11T13:20:29.815Z,34
2022-10-11T13:21:31.421Z,34
2022-10-11T13:22:33.265Z,34
2022-10-11T13:23:35.037Z,34
2022-10-11T13:24:36.672Z,34
2022-10-11T13:25:38.405Z,33.9
2022-10-11T13:26:40.256Z,34
2022-10-11T13:27:41.879Z,34
2022-10-11T13:28:43.676Z,34
2022-10-11T13:29:45.601Z,34
2022-10-11T13:30:47.246Z,34
2022-10-11T13:31:48.893Z,34
2022-10-11T13:32:50.587Z,34
2022-10-11T13:33:52.385Z,34
2022-10-11T13:34:54.033Z,34.1
2022-10-11T13:35:55.794Z,34.1
2022-10-11T13:36:57.462Z,34.1
2022-10-11T13:37:59.071Z,34.1
2022-10-11T13:39:00.629Z,34.1
2022-10-11T13:40:02.567Z,34.1
2022-10-11T13:41:04.179Z,34.2
2022-10-11T13:42:08.929Z,34.1
2022-10-11T13:43:10.558Z,34.2
2022-10-11T13:44:12.250Z,34.1
2022-10-11T13:45:13.863Z,34.2
2022-10-11T13:46:15.549Z,34.2
2022-10-11T13:47:17.092Z,34.3
2022-10-11T13:48:18.698Z,34.2
2022-10-11T13:49:20.342Z,34.2
2022-10-11T13:50:21.991Z,34.3
2022-10-11T13:51:23.526Z,34.3
2022-10-11T13:52:25.316Z,34.2
2022-10-11T13:53:26.923Z,34.2